Time;durP1;ratioP1;P1;durP2;ratioP2;P2;SDS_P1;SDS_P2;PMS_P1;PMS_P2;Temp;Humidity;BMP_temperature;BMP_pressure;BME280_temperature;BME280_humidity;BME280_pressure;Samples;Min_cycle;Max_cycle;Signal;HPM_P1;HPM_P2
2022/11/29 00:01:46;;;;;;;7.00;3.03;;;19.70;60.10;;;;;;4887999;29;20205;-74
2022/11/29 00:04:11;;;;;;;6.68;3.00;;;19.70;59.40;;;;;;4905287;29;20203;-74
2022/11/29 00:06:37;;;;;;;7.75;3.00;;;19.70;59.40;;;;;;4886638;29;20412;-74
2022/11/29 00:09:06;;;;;;;5.72;2.70;;;19.70;59.40;;;;;;4890752;29;20055;-74
2022/11/29 00:14:22;;;;;;;5.10;2.90;;;19.70;59.40;;;;;;4904319;29;20088;-74
2022/11/29 00:16:53;;;;;;;8.40;3.05;;;19.70;59.40;;;;;;4893836;29;20060;-74
2022/11/29 00:19:19;;;;;;;5.63;3.03;;;19.70;59.40;;;;;;4888572;29;20052;-74
2022/11/29 00:21:45;;;;;;;5.72;2.80;;;19.70;59.30;;;;;;4879838;29;20437;-75
2022/11/29 00:24:11;;;;;;;5.88;2.88;;;19.60;59.30;;;;;;4901035;29;20071;-74
2022/11/29 00:26:36;;;;;;;7.93;3.00;;;19.70;59.30;;;;;;4883622;29;20079;-73
2022/11/29 00:29:03;;;;;;;5.20;2.70;;;19.60;59.30;;;;;;4899744;29;20131;-75
2022/11/29 00:31:30;;;;;;;6.15;2.70;;;19.70;59.30;;;;;;4880155;29;20055;-73
2022/11/29 00:33:57;;;;;;;4.88;2.65;;;19.60;59.20;;;;;;4884960;29;20493;-74
2022/11/29 00:36:23;;;;;;;5.15;2.55;;;19.60;59.30;;;;;;4899400;29;20044;-74
2022/11/29 00:38:49;;;;;;;6.43;3.22;;;19.70;59.30;;;;;;4900245;29;20127;-74
2022/11/29 00:41:14;;;;;;;5.85;2.70;;;19.60;59.20;;;;;;4881180;29;20449;-74
2022/11/29 00:43:40;;;;;;;6.93;2.70;;;19.60;59.20;;;;;;4883306;29;20130;-74
2022/11/29 00:46:06;;;;;;;5.65;2.80;;;19.70;59.20;;;;;;4888827;29;20107;-74
2022/11/29 00:48:32;;;;;;;8.32;3.08;;;19.60;59.20;;;;;;4882941;29;20048;-74
2022/11/29 00:50:58;;;;;;;4.63;2.80;;;19.60;59.20;;;;;;4899750;29;20063;-74
2022/11/29 00:53:23;;;;;;;4.65;2.50;;;19.60;59.20;;;;;;4884565;29;20051;-75
2022/11/29 00:55:50;;;;;;;4.38;2.45;;;19.60;59.20;;;;;;4884517;29;20044;-75
2022/11/29 00:58:16;;;;;;;5.35;2.70;;;19.60;59.20;;;;;;4888728;29;20381;-75
2022/11/29 01:00:42;;;;;;;5.70;2.70;;;19.60;59.20;;;;;;4899398;29;20051;-74
2022/11/29 01:03:08;;;;;;;5.07;2.60;;;19.60;59.20;;;;;;4900952;29;20043;-75
2022/11/29 01:05:34;;;;;;;4.55;2.55;;;19.60;59.20;;;;;;4884990;29;20131;-74
2022/11/29 01:07:59;;;;;;;4.00;2.40;;;19.60;59.20;;;;;;4881597;29;20505;-74
2022/11/29 01:10:25;;;;;;;8.45;3.15;;;19.60;59.10;;;;;;4898245;29;20500;-75
2022/11/29 01:12:50;;;;;;;5.85;2.60;;;19.60;59.10;;;;;;4885676;29;20155;-74
2022/11/29 01:15:16;;;;;;;4.30;2.65;;;19.60;59.10;;;;;;4901974;29;20140;-75
2022/11/29 01:17:42;;;;;;;5.70;2.83;;;19.60;59.10;;;;;;4881839;29;20496;-74
2022/11/29 01:20:10;;;;;;;4.35;2.50;;;19.60;59.20;;;;;;4887455;29;20040;-74
2022/11/29 01:22:36;;;;;;;6.05;2.85;;;19.60;59.10;;;;;;4885822;29;20056;-74
2022/11/29 01:25:03;;;;;;;6.03;2.70;;;19.60;59.00;;;;;;4890015;29;20110;-75
2022/11/29 01:27:28;;;;;;;6.50;2.85;;;19.60;59.00;;;;;;4891241;29;20055;-73
2022/11/29 01:29:54;;;;;;;6.93;3.08;;;19.60;59.10;;;;;;4900799;29;20436;-74
2022/11/29 01:32:19;;;;;;;4.72;2.45;;;19.60;59.00;;;;;;4901253;29;20063;-74
2022/11/29 01:34:45;;;;;;;5.45;3.05;;;19.60;59.00;;;;;;4898991;29;20048;-73
2022/11/29 01:37:11;;;;;;;4.90;2.60;;;19.60;59.00;;;;;;4887377;29;20048;-74
2022/11/29 01:39:36;;;;;;;4.45;2.53;;;19.60;59.00;;;;;;4882131;29;20504;-76
2022/11/29 01:42:02;;;;;;;6.38;2.78;;;19.60;58.90;;;;;;4904293;29;20056;-74
2022/11/29 01:44:28;;;;;;;4.55;2.33;;;19.60;59.00;;;;;;4885763;29;20557;-75
2022/11/29 01:46:54;;;;;;;3.83;2.60;;;19.60;58.90;;;;;;4882306;29;20039;-75
2022/11/29 01:49:37;;;;;;;4.32;2.45;;;19.60;58.90;;;;;;4878799;29;20086;-74
2022/11/29 01:52:08;;;;;;;3.78;2.47;;;19.60;58.90;;;;;;4885053;29;20056;-74
2022/11/29 01:54:39;;;;;;;5.00;2.60;;;19.60;58.80;;;;;;4893378;29;20060;-74
2022/11/29 01:57:07;;;;;;;4.05;2.40;;;19.60;58.80;;;;;;4875105;29;20932;-74
2022/11/29 01:59:35;;;;;;;4.63;2.47;;;19.60;58.90;;;;;;4891151;29;20044;-74
2022/11/29 02:02:09;;;;;;;5.97;2.95;;;19.60;58.80;;;;;;4881786;29;20032;-71
2022/11/29 02:04:35;;;;;;;5.35;2.78;;;19.60;58.80;;;;;;4904733;29;20055;-75
2022/11/29 02:07:01;;;;;;;4.18;2.63;;;19.70;58.80;;;;;;4903959;29;20501;-75
2022/11/29 02:09:27;;;;;;;4.38;2.55;;;19.70;58.80;;;;;;4883298;29;20052;-74
2022/11/29 02:12:31;;;;;;;5.45;3.00;;;19.60;58.70;;;;;;4867799;29;20052;-75
2022/11/29 02:15:04;;;;;;;4.80;2.38;;;19.70;58.70;;;;;;4894709;29;20601;-75
2022/11/29 02:17:42;;;;;;;4.20;2.35;;;19.70;58.70;;;;;;4909647;29;20054;-76
2022/11/29 02:20:28;;;;;;;3.92;2.35;;;19.70;58.70;;;;;;4887281;29;20067;-74
2022/11/29 02:23:13;;;;;;;4.18;2.40;;;19.70;58.60;;;;;;4888428;29;20036;-74
2022/11/29 02:25:58;;;;;;;5.35;2.83;;;19.70;58.60;;;;;;4870172;29;20078;-74
2022/11/29 02:28:42;;;;;;;5.55;2.72;;;19.70;58.60;;;;;;4885821;29;20110;-75
2022/11/29 02:31:36;;;;;;;4.90;2.90;;;19.70;58.60;;;;;;4893964;29;20153;-73
2022/11/29 02:34:29;;;;;;;4.15;2.35;;;19.70;58.60;;;;;;4874664;29;20075;-75
2022/11/29 02:37:53;;;;;;;4.65;2.80;;;19.70;58.60;;;;;;4868813;29;20064;-75
2022/11/29 02:40:33;;;;;;;5.07;2.40;;;19.70;58.60;;;;;;4822608;29;20511;-76
2022/11/29 02:43:33;;;;;;;4.07;2.35;;;19.70;58.60;;;;;;4808519;29;20054;-74
2022/11/29 02:46:20;;;;;;;4.50;2.40;;;19.70;58.60;;;;;;4879938;29;20065;-75
2022/11/29 02:48:51;;;;;;;3.33;2.42;;;19.70;58.60;;;;;;4888840;29;20044;-74
2022/11/29 02:51:28;;;;;;;5.85;2.63;;;19.60;58.50;;;;;;4913821;29;20131;-74
2022/11/29 02:54:08;;;;;;;4.60;2.53;;;19.60;58.50;;;;;;4887310;29;20512;-74
2022/11/29 02:56:45;;;;;;;3.85;2.40;;;19.60;58.50;;;;;;4902725;29;20055;-74
2022/11/29 02:59:51;;;;;;;4.85;2.60;;;19.70;58.60;;;;;;4889686;29;20083;-75
2022/11/29 03:02:35;;;;;;;4.78;2.30;;;19.60;58.50;;;;;;4885668;29;20079;-73
2022/11/29 03:05:16;;;;;;;3.60;2.17;;;19.60;58.50;;;;;;4889018;29;20041;-75
2022/11/29 03:07:57;;;;;;;4.38;2.38;;;19.60;58.50;;;;;;4888186;29;20051;-74
2022/11/29 03:11:01;;;;;;;4.63;2.38;;;19.60;58.50;;;;;;4901242;29;20131;-73
2022/11/29 03:13:45;;;;;;;3.65;2.30;;;19.60;58.50;;;;;;4864183;29;20135;-74
2022/11/29 03:16:47;;;;;;;3.60;2.40;;;19.60;58.50;;;;;;4885854;29;20047;-74
2022/11/29 03:19:38;;;;;;;4.47;2.20;;;19.60;58.50;;;;;;4901737;29;20766;-73
2022/11/29 03:22:23;;;;;;;4.43;1.92;;;19.60;59.30;;;;;;4889461;29;20595;-74
2022/11/29 03:24:57;;;;;;;4.18;2.10;;;19.60;58.50;;;;;;4889600;29;20056;-74
2022/11/29 03:27:44;;;;;;;3.13;2.17;;;19.60;58.50;;;;;;4884886;29;20108;-74
2022/11/29 03:30:15;;;;;;;4.38;2.40;;;19.60;58.50;;;;;;4886293;29;20048;-75
2022/11/29 03:33:13;;;;;;;4.38;2.40;;;19.60;58.50;;;;;;4869352;29;20489;-74
2022/11/29 03:35:52;;;;;;;4.50;2.33;;;19.60;58.50;;;;;;4875428;29;20068;-74
2022/11/29 03:38:40;;;;;;;2.75;2.00;;;19.60;58.50;;;;;;4885955;29;20049;-75
2022/11/29 03:41:31;;;;;;;2.70;2.15;;;19.60;58.50;;;;;;4884798;29;20059;-75
2022/11/29 03:44:08;;;;;;;3.75;2.15;;;19.60;58.40;;;;;;4887454;29;20064;-74
2022/11/29 03:47:14;;;;;;;3.45;2.20;;;19.60;58.50;;;;;;4901007;29;20036;-74
2022/11/29 03:50:19;;;;;;;3.58;2.25;;;19.60;58.50;;;;;;4867896;29;20509;-74
2022/11/29 03:53:02;;;;;;;3.42;1.90;;;19.60;58.40;;;;;;4883752;29;22103;-73
2022/11/29 03:55:49;;;;;;;3.47;2.25;;;19.60;58.40;;;;;;4899522;29;20052;-74
2022/11/29 03:58:52;;;;;;;4.05;2.20;;;19.60;58.40;;;;;;4882871;29;20524;-74
2022/11/29 04:01:21;;;;;;;4.03;2.30;;;19.60;58.60;;;;;;4886323;29;20139;-75
2022/11/29 04:04:18;;;;;;;3.25;2.13;;;19.60;58.40;;;;;;4870024;29;20044;-74
2022/11/29 04:07:09;;;;;;;3.10;2.15;;;19.60;58.40;;;;;;4883823;29;20044;-74
2022/11/29 04:09:56;;;;;;;4.30;2.38;;;19.60;58.40;;;;;;4884648;29;20056;-75
2022/11/29 04:13:09;;;;;;;2.83;1.88;;;19.60;58.40;;;;;;4862394;29;20443;-74
2022/11/29 04:15:54;;;;;;;4.20;2.20;;;19.60;58.40;;;;;;4792356;29;20597;-74
2022/11/29 04:18:52;;;;;;;3.25;2.03;;;19.60;58.30;;;;;;4808377;29;20180;-74
2022/11/29 04:21:31;;;;;;;;;;;19.60;58.30;;;;;;4878666;29;20143;-75
2022/11/29 04:24:34;;;;;;;3.00;2.08;;;19.60;58.30;;;;;;4882779;29;19954;-74
2022/11/29 04:27:02;;;;;;;3.33;1.98;;;19.60;58.30;;;;;;4889164;29;20044;-74
2022/11/29 04:29:30;;;;;;;2.75;1.80;;;19.60;58.30;;;;;;4885174;29;20538;-74
2022/11/29 04:32:17;;;;;;;2.85;1.88;;;19.60;58.20;;;;;;4900806;29;20087;-74
2022/11/29 04:34:57;;;;;;;3.25;2.20;;;19.60;58.30;;;;;;4878292;29;20054;-73
2022/11/29 04:37:58;;;;;;;3.42;2.20;;;19.60;58.20;;;;;;4886013;29;20052;-74
2022/11/29 04:41:09;;;;;;;3.22;1.85;;;19.60;58.30;;;;;;4809272;29;20056;-75
2022/11/29 04:44:04;;;;;;;2.50;1.63;;;19.60;58.20;;;;;;4885953;29;20281;-74
2022/11/29 04:46:40;;;;;;;3.42;2.08;;;19.60;58.30;;;;;;4886279;29;20117;-74
2022/11/29 04:49:33;;;;;;;2.72;1.85;;;19.60;58.20;;;;;;4886419;29;20056;-75
2022/11/29 04:52:37;;;;;;;2.95;1.90;;;19.60;58.40;;;;;;4869471;29;20210;-76
2022/11/29 04:55:34;;;;;;;3.30;1.98;;;19.60;58.20;;;;;;4879463;29;20048;-75
2022/11/29 04:58:24;;;;;;;2.33;1.75;;;19.60;58.20;;;;;;4868581;29;20059;-74
2022/11/29 05:01:11;;;;;;;3.20;1.80;;;19.60;58.20;;;;;;4884520;29;20144;-75
2022/11/29 05:03:44;;;;;;;2.88;1.80;;;19.60;58.20;;;;;;4883396;29;20775;-75
2022/11/29 05:06:27;;;;;;;4.10;2.05;;;19.60;58.40;;;;;;4882070;29;20048;-74
2022/11/29 05:09:09;;;;;;;3.05;1.77;;;19.60;58.20;;;;;;4889397;29;20062;-74
2022/11/29 05:11:46;;;;;;;3.47;2.10;;;19.60;58.20;;;;;;4883235;29;20056;-75
2022/11/29 05:14:51;;;;;;;2.70;1.63;;;19.60;58.10;;;;;;4891002;29;20044;-75
2022/11/29 05:17:39;;;;;;;2.60;1.70;;;19.60;58.20;;;;;;4899716;29;20061;-74
2022/11/29 05:20:33;;;;;;;3.03;1.80;;;19.60;58.10;;;;;;4865663;29;20067;-75
2022/11/29 05:23:36;;;;;;;5.40;2.00;;;19.60;58.10;;;;;;4882808;29;20052;-74
2022/11/29 05:26:20;;;;;;;3.05;1.77;;;19.60;58.10;;;;;;4883387;29;20036;-74
2022/11/29 05:29:01;;;;;;;3.33;1.70;;;19.60;58.10;;;;;;4881794;29;20062;-74
2022/11/29 05:32:11;;;;;;;3.88;1.80;;;19.60;58.10;;;;;;4886248;29;20601;-75
2022/11/29 05:34:40;;;;;;;2.47;1.83;;;19.60;58.10;;;;;;4853356;29;21152;-75
2022/11/29 05:37:11;;;;;;;2.88;1.80;;;19.60;58.10;;;;;;4887228;29;20040;-75
2022/11/29 05:40:03;;;;;;;3.50;1.88;;;19.60;58.10;;;;;;4885953;29;20059;-74
2022/11/29 05:42:47;;;;;;;2.60;1.70;;;19.60;58.10;;;;;;4863621;29;20240;-74
2022/11/29 05:45:16;;;;;;;3.17;1.90;;;19.60;58.10;;;;;;4887247;29;20111;-74
2022/11/29 05:48:07;;;;;;;2.95;1.88;;;19.60;58.10;;;;;;4879296;29;20056;-74
2022/11/29 05:50:39;;;;;;;2.60;1.70;;;19.60;58.10;;;;;;4897528;29;20057;-73
2022/11/29 05:53:27;;;;;;;2.33;1.70;;;19.60;58.10;;;;;;4884856;29;20045;-75
2022/11/29 05:56:11;;;;;;;2.93;1.67;;;19.60;58.00;;;;;;4883485;29;20617;-74
2022/11/29 05:59:06;;;;;;;2.72;1.70;;;19.60;58.10;;;;;;4895435;29;20055;-74
2022/11/29 06:01:52;;;;;;;2.08;1.60;;;19.60;58.10;;;;;;4880191;29;20103;-73
2022/11/29 06:04:31;;;;;;;2.58;1.80;;;19.60;58.00;;;;;;4862524;29;20307;-75
2022/11/29 06:07:27;;;;;;;2.33;1.67;;;19.60;58.10;;;;;;4880963;29;20557;-73
2022/11/29 06:10:00;;;;;;;2.45;1.80;;;19.60;58.10;;;;;;4880589;29;20087;-72
2022/11/29 06:12:27;;;;;;;4.05;2.00;;;19.60;58.20;;;;;;4882019;29;20420;-72
2022/11/29 06:15:19;;;;;;;4.50;1.52;;;19.60;58.30;;;;;;4899551;29;20123;-75
2022/11/29 06:18:08;;;;;;;2.00;1.45;;;19.60;58.40;;;;;;4881497;29;20453;-73
2022/11/29 06:20:56;;;;;;;4.05;1.70;;;19.60;58.50;;;;;;4880803;29;20044;-72
2022/11/29 06:23:43;;;;;;;7.13;2.00;;;19.60;58.50;;;;;;4882798;29;20054;-72
2022/11/29 06:26:50;;;;;;;2.65;1.85;;;19.60;58.60;;;;;;4882976;29;20323;-73
2022/11/29 06:29:28;;;;;;;4.63;1.88;;;19.70;58.70;;;;;;4862244;29;20448;-73
2022/11/29 06:32:07;;;;;;;5.10;1.77;;;19.60;58.70;;;;;;4892772;29;20067;-73
2022/11/29 06:34:55;;;;;;;10.25;1.80;;;19.60;58.70;;;;;;4875746;29;20118;-74
2022/11/29 06:37:43;;;;;;;4.57;1.50;;;19.60;58.80;;;;;;4881673;29;20180;-74
2022/11/29 06:40:13;;;;;;;7.75;1.80;;;19.70;58.80;;;;;;4898537;29;20047;-74
2022/11/29 06:42:38;;;;;;;5.40;1.80;;;19.70;58.80;;;;;;4863824;29;20048;-74
2022/11/29 06:45:05;;;;;;;3.72;1.70;;;19.70;58.80;;;;;;4881035;29;20116;-74
2022/11/29 06:47:42;;;;;;;7.65;2.00;;;19.70;58.80;;;;;;4882964;29;20093;-73
2022/11/29 06:50:26;;;;;;;4.10;1.70;;;19.70;58.90;;;;;;4884346;29;20508;-73
2022/11/29 06:53:29;;;;;;;5.03;1.58;;;19.70;58.80;;;;;;4900961;29;20677;-74
2022/11/29 06:56:19;;;;;;;2.35;1.42;;;19.70;58.80;;;;;;4886755;29;20056;-75
2022/11/29 06:59:01;;;;;;;5.15;1.85;;;19.70;58.80;;;;;;4884680;29;20519;-74
2022/11/29 07:01:44;;;;;;;7.80;1.63;;;19.70;58.80;;;;;;4884359;29;20119;-73
2022/11/29 07:04:38;;;;;;;9.80;2.00;;;19.70;59.00;;;;;;4903341;29;20032;-72
2022/11/29 07:07:15;;;;;;;5.82;1.80;;;19.70;59.00;;;;;;4889091;29;20055;-73
2022/11/29 07:09:57;;;;;;;2.88;1.85;;;19.60;58.90;;;;;;4884903;29;20046;-72
2022/11/29 07:12:23;;;;;;;5.72;1.55;;;19.60;59.00;;;;;;4903991;29;20147;-73
2022/11/29 07:14:49;;;;;;;7.55;1.73;;;19.60;59.00;;;;;;4898406;29;20044;-72
2022/11/29 07:17:36;;;;;;;5.90;1.83;;;19.60;59.20;;;;;;4899906;29;20056;-73
2022/11/29 07:20:19;;;;;;;4.18;1.55;;;19.60;59.10;;;;;;4902781;29;20485;-75
2022/11/29 07:23:02;;;;;;;3.55;1.80;;;19.60;59.20;;;;;;4896578;29;20079;-72
2022/11/29 07:25:46;;;;;;;4.80;1.92;;;19.60;59.20;;;;;;4890066;29;20142;-72
2022/11/29 07:28:24;;;;;;;2.60;1.90;;;19.60;59.20;;;;;;4895276;29;20473;-73
2022/11/29 07:31:16;;;;;;;4.72;1.70;;;19.60;59.20;;;;;;4891960;29;20052;-71
2022/11/29 07:33:57;;;;;;;3.67;1.85;;;19.50;59.10;;;;;;4911795;29;20056;-70
2022/11/29 07:37:04;;;;;;;3.00;1.80;;;19.60;59.20;;;;;;4893335;29;20481;-70
2022/11/29 07:39:40;;;;;;;3.53;1.95;;;19.50;59.00;;;;;;4894159;29;20132;-71
2022/11/29 07:42:26;;;;;;;7.20;2.30;;;19.50;59.00;;;;;;4891648;29;20076;-72
2022/11/29 07:44:58;;;;;;;5.97;2.58;;;19.50;58.80;;;;;;4905871;29;20055;-75
2022/11/29 07:47:24;;;;;;;6.57;2.78;;;19.50;58.60;;;;;;4893838;29;20029;-71
2022/11/29 07:49:49;;;;;;;15.27;2.85;;;19.50;58.70;;;;;;4911062;29;20051;-72
2022/11/29 07:52:16;;;;;;;7.57;2.90;;;19.50;58.60;;;;;;4901264;29;20091;-70
2022/11/29 07:54:41;;;;;;;12.68;3.00;;;19.50;58.50;;;;;;4910308;29;20040;-70
2022/11/29 07:57:07;;;;;;;8.07;2.65;;;19.50;58.40;;;;;;4910986;29;20055;-70
2022/11/29 07:59:33;;;;;;;9.82;3.40;;;19.50;58.30;;;;;;4893051;29;20069;-70
2022/11/29 08:01:58;;;;;;;8.10;2.85;;;19.50;58.30;;;;;;4877405;29;20142;-70
2022/11/29 08:04:24;;;;;;;9.77;2.78;;;19.50;58.30;;;;;;4909766;29;20047;-70
2022/11/29 08:06:50;;;;;;;5.38;2.67;;;19.50;58.20;;;;;;4909144;29;20052;-71
2022/11/29 08:09:16;;;;;;;6.50;2.83;;;19.50;58.20;;;;;;4909182;29;20051;-71
2022/11/29 08:11:41;;;;;;;9.02;3.10;;;19.50;58.00;;;;;;4880048;29;20434;-70
2022/11/29 08:14:07;;;;;;;5.53;2.80;;;19.50;58.00;;;;;;4874145;29;20453;-72
2022/11/29 08:16:33;;;;;;;7.30;2.97;;;19.50;58.00;;;;;;4866689;29;20076;-71
2022/11/29 08:18:58;;;;;;;10.35;3.10;;;19.50;57.90;;;;;;4887009;29;20045;-72
2022/11/29 08:21:24;;;;;;;6.45;2.80;;;19.50;57.80;;;;;;4878307;29;20055;-70
2022/11/29 08:23:50;;;;;;;9.70;3.50;;;19.50;57.70;;;;;;4889717;29;20045;-71
2022/11/29 08:26:17;;;;;;;7.68;3.38;;;19.50;57.60;;;;;;4888277;29;20049;-72
2022/11/29 08:28:43;;;;;;;7.40;3.20;;;19.50;57.50;;;;;;4889147;29;20048;-70
2022/11/29 08:31:11;;;;;;;9.15;3.03;;;19.50;57.50;;;;;;4871564;29;20040;-70
2022/11/29 08:33:39;;;;;;;7.77;2.77;;;19.50;57.40;;;;;;4872480;29;20048;-70
2022/11/29 08:36:05;;;;;;;14.02;2.83;;;19.50;57.30;;;;;;4871900;29;20822;-74
2022/11/29 08:38:31;;;;;;;9.07;3.20;;;19.40;57.30;;;;;;4881027;29;20196;-71
2022/11/29 08:41:04;;;;;;;13.55;2.83;;;19.40;57.30;;;;;;4890514;29;20139;-72
2022/11/29 08:43:30;;;;;;;6.80;2.85;;;19.50;57.30;;;;;;4871396;29;20037;-70
2022/11/29 08:45:57;;;;;;;14.40;2.92;;;19.50;57.30;;;;;;4864567;29;20164;-71
2022/11/29 08:48:23;;;;;;;8.70;2.92;;;19.50;57.30;;;;;;4874895;29;20068;-72
2022/11/29 08:50:50;;;;;;;12.07;3.40;;;19.50;57.20;;;;;;4892116;29;20045;-73
2022/11/29 08:56:19;;;;;;;4.82;2.45;;;19.50;57.20;;;;;;4863787;29;20041;-70
2022/11/29 08:58:45;;;;;;;8.45;3.13;;;19.50;57.10;;;;;;4861936;29;20053;-70
2022/11/29 09:01:16;;;;;;;6.43;3.35;;;19.50;57.10;;;;;;4864878;29;20045;-71
2022/11/29 09:03:58;;;;;;;7.72;2.42;;;19.50;57.00;;;;;;4891907;29;20052;-71
2022/11/29 09:06:29;;;;;;;5.30;2.70;;;19.50;57.00;;;;;;4870864;29;20515;-71
2022/11/29 09:08:55;;;;;;;5.75;2.58;;;19.50;57.00;;;;;;4885774;29;20324;-72
2022/11/29 09:11:23;;;;;;;6.90;2.80;;;19.50;56.90;;;;;;4876245;29;20080;-71
2022/11/29 09:13:51;;;;;;;9.43;3.15;;;19.50;56.90;;;;;;4867308;29;20067;-71
2022/11/29 09:16:19;;;;;;;11.48;3.67;;;19.50;56.90;;;;;;4875077;29;20041;-71
2022/11/29 09:18:48;;;;;;;9.50;3.25;;;19.60;56.80;;;;;;4871399;29;20063;-72
2022/11/29 09:21:14;;;;;;;5.75;2.90;;;19.50;56.70;;;;;;4874368;29;20459;-74
2022/11/29 09:23:41;;;;;;;9.93;2.97;;;19.60;56.80;;;;;;4890858;29;20076;-72
2022/11/29 09:26:08;;;;;;;7.15;2.90;;;19.60;56.80;;;;;;4889283;29;20036;-70
2022/11/29 09:28:34;;;;;;;6.00;2.78;;;19.60;56.70;;;;;;4867640;29;20114;-70
2022/11/29 09:31:05;;;;;;;6.68;3.22;;;19.60;56.60;;;;;;4885702;29;20052;-72
2022/11/29 09:33:31;;;;;;;4.47;2.67;;;19.60;56.60;;;;;;4870746;29;20056;-70
2022/11/29 09:35:58;;;;;;;7.32;2.90;;;19.60;56.50;;;;;;4887129;29;20071;-70
2022/11/29 09:38:24;;;;;;;10.80;3.38;;;19.70;56.50;;;;;;4869488;29;20088;-70
2022/11/29 09:41:02;;;;;;;6.63;3.33;;;19.70;56.50;;;;;;4883751;29;20111;-71
2022/11/29 09:43:44;;;;;;;6.68;2.92;;;19.60;56.30;;;;;;4880897;29;20208;-70
2022/11/29 09:46:29;;;;;;;9.00;3.33;;;19.60;56.30;;;;;;4892703;29;20529;-72
2022/11/29 09:49:02;;;;;;;6.43;2.67;;;19.70;56.20;;;;;;4860759;29;20127;-72
2022/11/29 09:51:39;;;;;;;11.98;3.97;;;19.70;56.40;;;;;;4883809;29;20048;-75
2022/11/29 09:54:19;;;;;;;7.40;3.90;;;19.60;55.70;;;;;;4887439;29;20075;-75
2022/11/29 09:56:48;;;;;;;10.57;4.63;;;19.50;55.00;;;;;;4870435;29;20049;-74
2022/11/29 09:59:28;;;;;;;11.52;5.40;;;19.40;54.90;;;;;;4871721;29;20054;-70
2022/11/29 10:02:14;;;;;;;12.27;5.50;;;19.40;54.10;;;;;;4889777;29;20052;-71
2022/11/29 10:04:45;;;;;;;12.93;4.93;;;19.30;54.20;;;;;;4869955;29;20117;-73
2022/11/29 10:07:18;;;;;;;8.55;4.32;;;19.20;54.00;;;;;;4870491;29;20052;-69
2022/11/29 10:09:47;;;;;;;12.55;4.50;;;19.10;53.70;;;;;;4889776;29;20116;-71
2022/11/29 10:12:25;;;;;;;12.38;5.28;;;19.00;54.00;;;;;;4887788;29;20509;-71
2022/11/29 10:14:58;;;;;;;10.77;4.60;;;19.00;53.90;;;;;;4886768;29;20073;-70
2022/11/29 10:17:35;;;;;;;9.65;4.43;;;19.00;54.00;;;;;;4860222;29;20060;-73
2022/11/29 10:20:23;;;;;;;10.43;4.47;;;18.90;53.70;;;;;;4866172;29;20144;-73
2022/11/29 10:22:56;;;;;;;9.67;4.40;;;18.90;53.60;;;;;;4881235;29;20634;-71
2022/11/29 10:25:32;;;;;;;12.50;4.78;;;18.90;53.80;;;;;;4876237;29;20324;-71
2022/11/29 10:27:58;;;;;;;15.63;4.72;;;18.90;53.80;;;;;;4860657;29;20489;-71
2022/11/29 10:30:23;;;;;;;11.88;4.65;;;18.80;53.90;;;;;;4871999;29;20044;-68
2022/11/29 10:32:59;;;;;;;11.75;4.78;;;18.80;53.90;;;;;;4889047;29;20041;-72
2022/11/29 10:35:25;;;;;;;14.02;5.75;;;18.80;53.90;;;;;;4894293;29;20158;-70
2022/11/29 10:37:53;;;;;;;16.75;5.68;;;18.80;53.90;;;;;;4893681;29;20461;-70
2022/11/29 10:40:24;;;;;;;13.98;5.63;;;18.80;53.90;;;;;;4891811;29;20049;-70
2022/11/29 10:42:52;;;;;;;11.57;5.13;;;18.80;53.90;;;;;;4875018;29;20108;-70
2022/11/29 10:45:44;;;;;;;11.80;4.63;;;18.80;54.00;;;;;;4874326;29;20060;-70
2022/11/29 10:48:13;;;;;;;9.27;4.50;;;18.80;53.80;;;;;;4873367;29;20102;-72
2022/11/29 10:50:44;;;;;;;11.00;4.35;;;18.80;54.10;;;;;;4871425;29;20053;-70
2022/11/29 10:53:13;;;;;;;11.50;4.20;;;18.80;54.00;;;;;;4889836;29;20044;-70
2022/11/29 10:55:49;;;;;;;10.57;4.40;;;18.80;54.00;;;;;;4876701;29;20116;-71
2022/11/29 10:58:20;;;;;;;11.15;4.30;;;18.70;54.00;;;;;;4892929;29;20086;-73
2022/11/29 11:00:58;;;;;;;10.75;4.20;;;18.80;54.10;;;;;;4868544;29;20053;-70
2022/11/29 11:03:32;;;;;;;12.00;3.88;;;18.70;54.00;;;;;;4880517;29;20528;-73
2022/11/29 11:06:07;;;;;;;10.13;4.00;;;18.80;54.10;;;;;;4892717;29;20119;-71
2022/11/29 11:08:33;;;;;;;12.50;3.50;;;18.80;54.10;;;;;;4870880;29;20450;-74
2022/11/29 11:11:00;;;;;;;10.70;3.40;;;18.70;54.20;;;;;;4886639;29;20112;-71
2022/11/29 11:13:28;;;;;;;10.25;3.10;;;18.80;54.20;;;;;;4894535;29;20051;-70
2022/11/29 11:16:23;;;;;;;11.90;2.90;;;18.90;54.10;;;;;;4870754;29;20060;-71
2022/11/29 11:18:48;;;;;;;10.30;3.50;;;19.00;54.30;;;;;;4869925;29;20072;-71
2022/11/29 11:21:17;;;;;;;6.63;2.45;;;19.00;54.20;;;;;;4893107;29;20044;-70
2022/11/29 11:23:55;;;;;;;;;;;19.10;54.30;;;;;;4869960;29;20057;-77
2022/11/29 11:26:21;;;;;;;9.95;2.80;;;19.20;54.70;;;;;;4880782;29;19985;-71
2022/11/29 11:29:18;;;;;;;8.73;2.55;;;19.20;54.30;;;;;;4867771;29;20528;-70
2022/11/29 11:31:52;;;;;;;5.97;2.40;;;19.30;54.60;;;;;;4864280;29;20087;-71
2022/11/29 11:34:36;;;;;;;6.50;2.00;;;19.30;54.50;;;;;;4875370;29;20139;-69
2022/11/29 11:37:13;;;;;;;5.57;2.20;;;19.40;54.50;;;;;;4870867;29;20052;-72
2022/11/29 11:39:40;;;;;;;7.40;2.83;;;19.50;54.50;;;;;;4872615;29;20052;-71
2022/11/29 11:44:55;;;;;;;9.52;3.20;;;19.50;54.30;;;;;;4870171;29;20494;-71
2022/11/29 11:47:26;;;;;;;11.60;3.97;;;19.40;54.30;;;;;;4875303;29;20044;-71
2022/11/29 11:50:01;;;;;;;11.80;3.88;;;19.30;54.20;;;;;;4893559;29;20520;-72
2022/11/29 11:52:52;;;;;;;11.23;3.80;;;19.20;54.10;;;;;;4892427;29;20048;-71
2022/11/29 11:55:20;;;;;;;11.77;4.18;;;19.20;54.30;;;;;;4874085;29;20472;-70
2022/11/29 11:58:07;;;;;;;14.25;4.30;;;19.20;54.30;;;;;;4891816;29;20041;-69
2022/11/29 12:01:11;;;;;;;10.15;3.55;;;19.20;54.40;;;;;;4853112;29;20053;-71
2022/11/29 12:04:04;;;;;;;16.50;4.85;;;19.20;54.30;;;;;;4793778;29;20054;-70
2022/11/29 12:07:11;;;;;;;12.35;3.63;;;19.10;54.40;;;;;;4789036;29;20054;-74
2022/11/29 12:09:50;;;;;;;15.02;3.97;;;19.10;54.50;;;;;;4814163;29;20058;-75
2022/11/29 12:12:23;;;;;;;12.68;3.50;;;19.10;54.60;;;;;;4819392;29;20458;-76
2022/11/29 12:15:04;;;;;;;6.93;2.70;;;19.20;54.70;;;;;;4843982;29;20628;-76
2022/11/29 12:17:42;;;;;;;10.93;3.03;;;19.20;54.70;;;;;;4881061;29;20227;-75
2022/11/29 12:20:08;;;;;;;9.18;3.83;;;19.30;54.70;;;;;;4884172;29;20045;-76
2022/11/29 12:22:59;;;;;;;8.68;2.92;;;19.30;54.80;;;;;;4889113;29;20067;-76
2022/11/29 12:25:32;;;;;;;6.63;2.50;;;19.40;55.00;;;;;;4890098;29;20521;-76
2022/11/29 12:27:57;;;;;;;12.18;2.40;;;19.40;55.10;;;;;;4888919;29;20158;-76
2022/11/29 12:30:23;;;;;;;7.78;2.70;;;19.50;55.20;;;;;;4890397;29;20144;-76
2022/11/29 12:32:56;;;;;;;8.02;2.72;;;19.50;55.10;;;;;;4891213;29;20037;-77
2022/11/29 12:35:30;;;;;;;8.63;2.25;;;19.50;55.10;;;;;;4892662;29;20135;-77
2022/11/29 12:38:18;;;;;;;5.07;2.20;;;19.50;55.10;;;;;;4889649;29;20095;-76
2022/11/29 12:41:03;;;;;;;9.23;2.40;;;19.60;55.30;;;;;;4891387;29;20048;-76
2022/11/29 12:43:52;;;;;;;6.72;2.17;;;19.60;55.40;;;;;;4876863;29;20088;-76
2022/11/29 12:46:24;;;;;;;7.47;2.47;;;19.60;55.50;;;;;;4875138;29;20790;-77
2022/11/29 12:49:21;;;;;;;6.90;2.50;;;19.60;55.50;;;;;;4880150;29;20056;-77
2022/11/29 12:52:00;;;;;;;5.95;2.30;;;19.60;55.50;;;;;;4890385;29;20040;-77
2022/11/29 12:54:56;;;;;;;5.97;2.47;;;19.60;55.60;;;;;;4868531;29;20048;-76
2022/11/29 12:57:52;;;;;;;7.30;2.38;;;19.60;55.70;;;;;;4875807;29;20048;-76
2022/11/29 13:00:19;;;;;;;5.88;1.92;;;19.60;55.80;;;;;;4878955;29;20121;-77
2022/11/29 13:03:19;;;;;;;8.23;2.15;;;19.60;55.80;;;;;;4891655;29;20824;-76
2022/11/29 13:06:00;;;;;;;4.75;2.22;;;19.60;56.00;;;;;;4887196;29;20048;-76
2022/11/29 13:08:50;;;;;;;4.53;2.20;;;19.60;55.80;;;;;;4883247;29;20056;-75
2022/11/29 13:11:38;;;;;;;5.57;2.17;;;19.60;55.90;;;;;;4888353;29;20163;-77
2022/11/29 13:14:22;;;;;;;5.90;2.30;;;19.60;56.00;;;;;;4892625;29;22136;-76
2022/11/29 13:16:58;;;;;;;5.35;2.00;;;19.60;55.90;;;;;;4888373;29;20421;-76
2022/11/29 13:19:51;;;;;;;3.42;2.08;;;19.60;56.00;;;;;;4909804;29;20454;-77
2022/11/29 13:23:09;;;;;;;5.95;2.85;;;19.60;56.10;;;;;;4887904;29;20063;-77
2022/11/29 13:26:37;;;;;;;4.40;2.08;;;19.60;56.10;;;;;;4874058;29;20048;-77
2022/11/29 13:29:05;;;;;;;4.57;2.47;;;19.60;56.10;;;;;;4891964;29;20044;-77
2022/11/29 13:31:31;;;;;;;7.40;3.33;;;19.60;56.10;;;;;;4908656;29;20500;-76
2022/11/29 13:34:08;;;;;;;5.82;2.90;;;19.60;56.30;;;;;;4909676;29;20047;-77
2022/11/29 13:36:49;;;;;;;7.82;3.00;;;19.60;56.30;;;;;;4908100;29;20059;-77
2022/11/29 13:39:42;;;;;;;9.90;3.35;;;19.70;56.50;;;;;;4909431;29;20604;-77
2022/11/29 13:42:22;;;;;;;4.93;2.70;;;19.70;56.60;;;;;;4906087;29;20040;-75
2022/11/29 13:45:05;;;;;;;7.00;2.97;;;19.70;56.60;;;;;;4881245;29;20514;-72
2022/11/29 13:47:30;;;;;;;11.32;2.80;;;19.60;56.70;;;;;;4892230;29;20052;-75
2022/11/29 13:50:01;;;;;;;4.65;2.60;;;19.70;56.80;;;;;;4892085;29;20058;-75